createdAt,value
2023-04-19T00:01:52.502Z,6.93
2023-04-19T00:03:57.090Z,6.45
2023-04-19T00:06:10.702Z,7.13
2023-04-19T00:08:14.458Z,7.40
2023-04-19T00:10:18.256Z,6.45
2023-04-19T00:12:21.875Z,7.13
2023-04-19T00:14:25.787Z,7.10
2023-04-19T00:16:29.734Z,7.60
2023-04-19T00:18:34.771Z,7.53
2023-04-19T00:20:38.198Z,8.57
2023-04-19T00:22:42.010Z,7.80
2023-04-19T00:24:45.763Z,7.75
2023-04-19T00:26:49.402Z,8.13
2023-04-19T00:28:53.138Z,8.25
2023-04-19T00:34:14.088Z,7.22
2023-04-19T00:36:17.814Z,8.18
2023-04-19T00:38:21.297Z,7.50
2023-04-19T00:43:50.757Z,9.45
2023-04-19T00:45:54.458Z,7.78
2023-04-19T00:47:58.191Z,8.55
2023-04-19T00:50:03.626Z,8.80
2023-04-19T00:52:08.084Z,8.80
2023-04-19T00:54:12.032Z,9.27
2023-04-19T00:56:16.101Z,9.98
2023-04-19T00:58:19.726Z,10.07
2023-04-19T01:00:23.556Z,9.75
2023-04-19T01:02:28.673Z,9.43
2023-04-19T01:08:00.194Z,9.25
2023-04-19T01:10:03.889Z,10.52
2023-04-19T01:12:07.807Z,10.65
2023-04-19T01:14:11.163Z,10.05
2023-04-19T01:16:14.724Z,10.63
2023-04-19T01:18:19.515Z,11.48
2023-04-19T01:20:23.044Z,12.55
2023-04-19T01:22:28.416Z,11.32
2023-04-19T01:24:31.965Z,10.52
2023-04-19T01:26:36.445Z,11.23
2023-04-19T01:28:40.073Z,12.32
2023-04-19T01:30:44.297Z,11.77
2023-04-19T01:32:47.776Z,11.90
2023-04-19T01:34:52.015Z,11.40
2023-04-19T01:36:55.988Z,11.32
2023-04-19T01:39:00.942Z,11.25
2023-04-19T01:41:04.648Z,11.82
2023-04-19T01:43:08.682Z,11.90
2023-04-19T01:45:12.414Z,10.82
2023-04-19T01:47:59.209Z,10.68
2023-04-19T01:50:02.602Z,11.93
2023-04-19T01:52:06.353Z,12.52
2023-04-19T01:54:11.368Z,11.45
2023-04-19T01:56:14.925Z,11.25
2023-04-19T01:58:18.498Z,12.38
2023-04-19T02:00:22.397Z,11.20
2023-04-19T02:02:26.090Z,11.07
2023-04-19T02:04:30.392Z,10.90
2023-04-19T02:06:33.911Z,11.73
2023-04-19T02:08:37.480Z,11.73
2023-04-19T02:10:42.573Z,10.98
2023-04-19T02:12:46.056Z,10.60
2023-04-19T02:14:49.609Z,11.13
2023-04-19T02:16:53.307Z,11.23
2023-04-19T02:18:57.386Z,10.93
2023-04-19T02:21:01.117Z,10.90
2023-04-19T02:23:04.734Z,10.43
2023-04-19T02:25:09.447Z,11.18
2023-04-19T02:27:14.813Z,11.27
2023-04-19T02:29:18.686Z,11.75
2023-04-19T02:31:22.670Z,11.70
2023-04-19T02:33:27.342Z,10.85
2023-04-19T02:35:31.092Z,11.32
2023-04-19T02:37:34.503Z,10.63
2023-04-19T02:39:38.218Z,10.80
2023-04-19T02:41:41.822Z,11.25
2023-04-19T02:43:46.880Z,11.65
2023-04-19T02:45:51.025Z,10.48
2023-04-19T02:47:54.725Z,10.57
2023-04-19T02:50:20.675Z,10.38
2023-04-19T02:52:24.398Z,11.20
2023-04-19T02:54:28.454Z,10.95
2023-04-19T02:56:32.287Z,10.50
2023-04-19T02:58:36.122Z,10.43
2023-04-19T03:00:41.003Z,10.75
2023-04-19T03:02:45.238Z,10.50
2023-04-19T03:04:49.481Z,9.98
2023-04-19T03:10:10.346Z,10.18
2023-04-19T03:12:14.008Z,10.65
2023-04-19T03:14:17.696Z,9.80
2023-04-19T03:16:23.352Z,10.30
2023-04-19T03:18:27.080Z,10.27
2023-04-19T03:20:30.600Z,9.52
2023-04-19T03:22:34.027Z,10.45
2023-04-19T03:24:38.102Z,10.57
2023-04-19T03:26:41.694Z,11.48
2023-04-19T03:28:45.778Z,10.90
2023-04-19T03:30:49.611Z,10.07
2023-04-19T03:32:54.712Z,10.70
2023-04-19T03:34:58.171Z,10.88
2023-04-19T03:37:02.162Z,11.38
2023-04-19T03:39:06.072Z,10.55
2023-04-19T03:41:20.476Z,11.25
2023-04-19T03:43:24.586Z,11.30
2023-04-19T03:45:28.277Z,10.82
2023-04-19T03:47:32.038Z,12.15
2023-04-19T03:49:37.059Z,12.25
2023-04-19T03:52:30.416Z,11.63
2023-04-19T03:54:34.369Z,11.93
2023-04-19T03:56:38.194Z,12.27
2023-04-19T03:58:42.860Z,12.35
2023-04-19T04:00:58.056Z,13.07
2023-04-19T04:03:02.085Z,14.15
2023-04-19T04:05:08.075Z,13.20
2023-04-19T04:07:12.448Z,14.55
2023-04-19T04:09:15.920Z,14.48
2023-04-19T04:14:45.097Z,12.95
2023-04-19T04:16:49.298Z,15.60
2023-04-19T04:18:53.492Z,14.30
2023-04-19T04:20:59.016Z,15.27
2023-04-19T04:23:02.733Z,14.48
2023-04-19T04:25:07.579Z,13.95
2023-04-19T04:27:11.514Z,15.25
2023-04-19T04:29:34.655Z,15.88
2023-04-19T04:31:38.540Z,14.68
2023-04-19T04:33:42.754Z,15.30
2023-04-19T04:35:46.832Z,15.75
2023-04-19T04:37:54.141Z,15.85
2023-04-19T04:39:58.028Z,16.27
2023-04-19T04:42:01.817Z,17.60
2023-04-19T04:44:12.693Z,16.38
2023-04-19T04:46:27.158Z,16.23
2023-04-19T04:48:31.652Z,15.57
2023-04-19T04:50:35.425Z,14.48
2023-04-19T04:52:39.114Z,17.05
2023-04-19T04:54:44.238Z,15.88
2023-04-19T04:56:48.298Z,15.43
2023-04-19T04:59:59.334Z,15.35
2023-04-19T05:02:03.184Z,14.27
2023-04-19T05:04:07.920Z,15.07
2023-04-19T05:06:12.295Z,16.80
2023-04-19T05:08:31.611Z,15.57
2023-04-19T05:10:36.724Z,14.93
2023-04-19T05:12:40.635Z,15.18
2023-04-19T05:14:44.333Z,15.25
2023-04-19T05:16:48.208Z,14.52
2023-04-19T05:19:23.577Z,14.27
2023-04-19T05:21:27.868Z,14.98
2023-04-19T05:23:31.561Z,15.95
2023-04-19T05:25:36.859Z,14.63
2023-04-19T05:27:40.424Z,15.90
2023-04-19T05:29:44.414Z,16.17
2023-04-19T05:31:52.606Z,14.88
2023-04-19T05:34:26.800Z,16.00
2023-04-19T05:36:32.410Z,13.63
2023-04-19T05:38:36.274Z,14.57
2023-04-19T05:40:41.538Z,13.50
2023-04-19T05:42:48.520Z,13.60
2023-04-19T05:44:52.026Z,14.00
2023-04-19T05:46:55.900Z,13.48
2023-04-19T05:48:59.809Z,13.02
2023-04-19T05:51:04.123Z,12.20
2023-04-19T05:53:08.163Z,12.85
2023-04-19T05:55:11.757Z,12.13
2023-04-19T05:57:36.420Z,12.10
2023-04-19T05:59:40.357Z,13.45
2023-04-19T06:01:44.519Z,11.52
2023-04-19T06:03:53.291Z,12.13
2023-04-19T06:05:58.008Z,12.20
2023-04-19T06:08:31.805Z,11.57
2023-04-19T06:10:52.801Z,11.75
2023-04-19T06:13:00.907Z,10.63
2023-04-19T06:15:04.690Z,10.68
2023-04-19T06:17:09.054Z,10.20
2023-04-19T06:19:12.998Z,11.18
2023-04-19T06:21:17.352Z,11.65
2023-04-19T06:23:21.132Z,10.93
2023-04-19T06:25:25.599Z,9.88
2023-04-19T06:27:29.407Z,9.85
2023-04-19T06:29:34.444Z,9.68
2023-04-19T06:31:38.306Z,9.95
2023-04-19T06:33:41.840Z,9.18
2023-04-19T06:35:45.280Z,9.73
2023-04-19T06:37:50.901Z,9.73
2023-04-19T06:39:55.842Z,8.70
2023-04-19T06:41:59.350Z,10.00
2023-04-19T06:44:03.183Z,9.55
2023-04-19T06:46:09.048Z,8.52
2023-04-19T06:48:12.805Z,8.00
2023-04-19T06:50:35.278Z,7.70
2023-04-19T06:52:39.162Z,8.32
2023-04-19T06:54:43.149Z,6.82
2023-04-19T06:56:47.862Z,10.90
2023-04-19T06:58:51.989Z,7.95
2023-04-19T07:00:55.966Z,6.88
2023-04-19T07:03:01.987Z,6.95
2023-04-19T07:05:06.612Z,7.60
2023-04-19T07:07:10.294Z,6.75
2023-04-19T07:09:14.321Z,6.75
2023-04-19T07:11:45.036Z,7.28
2023-04-19T07:13:48.600Z,6.05
2023-04-19T07:15:52.405Z,6.22
2023-04-19T07:17:57.114Z,5.63
2023-04-19T07:20:02.310Z,5.28
2023-04-19T07:22:06.605Z,6.60
2023-04-19T07:24:10.452Z,5.65
2023-04-19T07:26:15.115Z,5.45
2023-04-19T07:28:18.897Z,5.45
2023-04-19T07:30:24.181Z,4.95
2023-04-19T07:32:28.283Z,4.93
2023-04-19T07:34:32.298Z,5.40
2023-04-19T07:36:38.412Z,4.97
2023-04-19T07:38:42.058Z,5.30
2023-04-19T07:40:57.117Z,6.63
2023-04-19T07:43:00.783Z,5.95
2023-04-19T07:45:04.591Z,5.57
2023-04-19T07:47:08.896Z,6.30
2023-04-19T07:49:12.475Z,5.97
2023-04-19T07:51:17.054Z,5.30
2023-04-19T07:53:22.507Z,5.53
2023-04-19T07:55:46.267Z,4.78
2023-04-19T07:57:50.385Z,6.07
2023-04-19T07:59:58.145Z,4.60
2023-04-19T08:02:02.128Z,5.10
2023-04-19T08:04:06.385Z,5.78
2023-04-19T08:06:10.760Z,5.82
2023-04-19T08:08:24.862Z,5.20
2023-04-19T08:10:30.586Z,5.85
2023-04-19T08:12:39.348Z,5.43
2023-04-19T08:15:00.669Z,7.30
2023-04-19T08:17:25.135Z,5.53
2023-04-19T08:19:29.888Z,4.85
2023-04-19T08:21:40.515Z,4.88
2023-04-19T08:23:48.609Z,4.75
2023-04-19T08:25:52.676Z,5.30
2023-04-19T08:27:57.706Z,4.68
2023-04-19T08:30:01.520Z,6.20
2023-04-19T08:32:05.552Z,4.93
2023-04-19T08:34:09.321Z,4.90
2023-04-19T08:36:15.287Z,5.40
2023-04-19T08:38:23.522Z,5.30
2023-04-19T08:40:29.055Z,5.18
2023-04-19T08:42:36.774Z,5.05
2023-04-19T08:44:54.345Z,6.80
2023-04-19T08:47:04.831Z,5.18
2023-04-19T08:49:08.804Z,5.05
2023-04-19T08:51:14.161Z,5.03
2023-04-19T08:53:24.609Z,6.43
2023-04-19T08:55:31.240Z,6.60
2023-04-19T08:57:35.173Z,5.38
2023-04-19T08:59:45.948Z,5.57
2023-04-19T09:01:50.497Z,5.20
2023-04-19T09:04:02.524Z,5.70
2023-04-19T09:06:12.521Z,4.97
2023-04-19T09:08:26.573Z,5.95
2023-04-19T09:10:32.357Z,5.53
2023-04-19T09:12:36.144Z,7.05
2023-04-19T09:14:50.328Z,4.93
2023-04-19T09:17:16.653Z,6.60
2023-04-19T09:19:25.272Z,4.70
2023-04-19T09:21:32.078Z,5.55
2023-04-19T09:23:35.943Z,5.05
2023-04-19T09:26:05.922Z,6.68
2023-04-19T09:28:12.285Z,6.57
2023-04-19T09:30:27.947Z,5.60
2023-04-19T09:32:48.008Z,5.55
2023-04-19T09:34:55.768Z,5.38
2023-04-19T09:37:11.704Z,5.40
2023-04-19T09:39:30.032Z,5.90
2023-04-19T09:41:38.128Z,5.53
2023-04-19T09:44:00.772Z,5.68
2023-04-19T09:46:06.754Z,5.50
2023-04-19T09:48:10.453Z,6.75
2023-04-19T09:52:21.586Z,6.45
2023-04-19T09:54:27.546Z,5.75
2023-04-19T09:56:31.284Z,6.75
2023-04-19T10:00:49.995Z,5.95
2023-04-19T10:02:58.654Z,8.35
2023-04-19T10:05:19.700Z,6.07
2023-04-19T10:07:30.504Z,6.80
2023-04-19T10:09:45.861Z,6.38
2023-04-19T10:12:03.170Z,8.68
2023-04-19T10:14:17.461Z,7.03
2023-04-19T10:16:21.109Z,6.10
2023-04-19T10:18:25.917Z,6.65
2023-04-19T10:20:34.145Z,7.22
2023-04-19T10:22:39.092Z,5.50
2023-04-19T10:24:44.505Z,5.25
2023-04-19T10:27:12.166Z,7.88
2023-04-19T10:29:37.220Z,6.82
2023-04-19T10:31:41.355Z,6.68
2023-04-19T10:33:45.699Z,4.97
2023-04-19T10:35:50.341Z,4.90
2023-04-19T10:38:08.368Z,5.30
2023-04-19T10:40:13.447Z,7.20
2023-04-19T10:42:18.205Z,6.38
2023-04-19T10:44:23.550Z,6.65
2023-04-19T10:46:42.174Z,7.53
2023-04-19T10:48:55.763Z,5.97
2023-04-19T10:50:58.925Z,6.90
2023-04-19T10:53:29.506Z,5.63
2023-04-19T10:55:35.554Z,6.10
2023-04-19T10:58:05.446Z,6.15
2023-04-19T11:00:25.650Z,6.72
2023-04-19T11:02:31.141Z,6.75
2023-04-19T11:05:00.747Z,5.45
2023-04-19T11:07:05.326Z,6.45
2023-04-19T11:09:11.042Z,5.70
2023-04-19T11:11:15.728Z,6.03
2023-04-19T11:13:19.456Z,6.40
2023-04-19T11:15:26.274Z,4.32
2023-04-19T11:17:32.083Z,5.32
2023-04-19T11:19:36.367Z,4.93
2023-04-19T11:21:42.287Z,7.03
2023-04-19T11:23:47.948Z,4.85
2023-04-19T11:25:53.681Z,5.80
2023-04-19T11:27:58.209Z,6.47
2023-04-19T11:30:05.921Z,4.72
2023-04-19T11:32:12.106Z,4.88
2023-04-19T11:34:16.515Z,4.90
2023-04-19T11:36:20.375Z,3.72
2023-04-19T11:38:24.358Z,4.95
2023-04-19T11:40:28.107Z,3.67
2023-04-19T11:42:31.898Z,4.88
2023-04-19T11:44:36.992Z,4.70
2023-04-19T11:46:40.993Z,5.15
2023-04-19T11:48:54.275Z,4.00
2023-04-19T11:51:02.727Z,4.25
2023-04-19T11:53:13.930Z,4.50
2023-04-19T11:55:21.157Z,4.05
2023-04-19T11:57:32.472Z,5.63
2023-04-19T11:59:37.093Z,3.25
2023-04-19T12:01:41.098Z,3.60
2023-04-19T12:03:47.926Z,3.10
2023-04-19T12:05:57.460Z,4.15
2023-04-19T12:08:04.776Z,2.88
2023-04-19T12:10:12.267Z,3.80
2023-04-19T12:12:16.046Z,4.03
2023-04-19T12:14:21.714Z,4.07
2023-04-19T12:16:29.618Z,3.70
2023-04-19T12:18:49.313Z,4.50
2023-04-19T12:20:53.608Z,3.13
2023-04-19T12:22:58.683Z,2.72
2023-04-19T12:25:02.277Z,3.05
2023-04-19T12:27:06.267Z,3.10
2023-04-19T12:29:10.883Z,5.30
2023-04-19T12:31:15.281Z,2.88
2023-04-19T12:33:19.546Z,3.55
2023-04-19T12:35:23.859Z,2.40
2023-04-19T12:37:27.796Z,2.78
2023-04-19T12:39:33.150Z,1.85
2023-04-19T12:41:37.048Z,1.90
2023-04-19T12:43:41.408Z,1.80
2023-04-19T12:45:45.252Z,2.47
2023-04-19T12:47:49.369Z,2.28
2023-04-19T12:49:53.101Z,2.13
2023-04-19T12:51:57.555Z,2.67
2023-04-19T12:54:02.655Z,1.65
2023-04-19T12:56:08.529Z,3.15
2023-04-19T12:58:12.595Z,3.17
2023-04-19T13:00:17.737Z,2.08
2023-04-19T13:02:22.062Z,1.40
2023-04-19T13:04:26.300Z,2.40
2023-04-19T13:06:30.360Z,1.85
2023-04-19T13:08:44.249Z,1.55
2023-04-19T13:10:50.632Z,2.03
2023-04-19T13:12:56.470Z,3.42
2023-04-19T13:15:01.965Z,1.40
2023-04-19T13:17:07.548Z,2.60
2023-04-19T13:19:11.407Z,2.40
2023-04-19T13:21:15.338Z,2.28
2023-04-19T13:23:19.075Z,2.92
2023-04-19T13:25:23.180Z,2.25
2023-04-19T13:27:27.245Z,3.00
2023-04-19T13:29:32.407Z,2.45
2023-04-19T13:31:36.227Z,2.30
2023-04-19T13:33:39.948Z,2.25
2023-04-19T13:35:45.204Z,6.05
2023-04-19T13:37:48.873Z,2.35
2023-04-19T13:39:55.237Z,1.55
2023-04-19T13:42:05.232Z,2.22
2023-04-19T13:44:09.454Z,3.70
2023-04-19T13:46:15.433Z,5.10
2023-04-19T13:48:19.517Z,1.73
2023-04-19T13:50:23.945Z,2.20
2023-04-19T13:52:28.046Z,2.05
2023-04-19T13:54:32.092Z,2.75
2023-04-19T13:56:36.339Z,1.60
2023-04-19T13:58:40.274Z,1.50
2023-04-19T14:00:44.297Z,2.13
2023-04-19T14:02:52.033Z,2.83
2023-04-19T14:04:59.169Z,3.35
2023-04-19T14:07:02.944Z,2.03
2023-04-19T14:09:07.033Z,2.15
2023-04-19T14:11:11.348Z,2.15
2023-04-19T14:13:15.184Z,2.80
2023-04-19T14:15:19.082Z,1.38
2023-04-19T14:17:22.816Z,3.38
2023-04-19T14:19:28.147Z,4.00
2023-04-19T14:21:32.393Z,3.60
2023-04-19T14:23:36.480Z,3.00
2023-04-19T14:25:40.479Z,4.10
2023-04-19T14:27:44.761Z,3.63
2023-04-19T14:29:48.704Z,4.97
2023-04-19T14:31:53.196Z,3.45
2023-04-19T14:33:57.583Z,2.67
2023-04-19T14:36:03.135Z,3.97
2023-04-19T14:38:07.366Z,2.55
2023-04-19T14:40:12.209Z,3.78
2023-04-19T14:42:16.160Z,4.57
2023-04-19T14:52:18.006Z,2.60
2023-04-19T14:54:21.593Z,5.55
2023-04-19T14:56:24.997Z,2.05
2023-04-19T14:58:28.527Z,2.85
2023-04-19T15:00:34.853Z,2.53
2023-04-19T15:02:38.920Z,2.20
2023-04-19T15:04:43.070Z,3.30
2023-04-19T15:06:46.814Z,2.92
2023-04-19T15:08:51.818Z,2.20
2023-04-19T15:10:55.362Z,3.63
2023-04-19T15:12:59.226Z,2.72
2023-04-19T15:15:03.253Z,4.05
2023-04-19T15:17:06.969Z,2.75
2023-04-19T15:19:10.791Z,2.65
2023-04-19T15:21:14.434Z,2.97
2023-04-19T15:23:18.232Z,3.35
2023-04-19T15:25:26.217Z,2.67
2023-04-19T15:27:29.876Z,3.65
2023-04-19T15:29:33.584Z,3.47
2023-04-19T15:31:37.281Z,2.10
2023-04-19T15:33:40.928Z,2.20
2023-04-19T15:35:44.458Z,3.70
2023-04-19T15:37:48.856Z,2.35
2023-04-19T15:39:52.309Z,4.45
2023-04-19T15:42:00.038Z,2.78
2023-04-19T15:44:03.601Z,3.15
2023-04-19T15:46:07.439Z,3.38
2023-04-19T15:48:11.120Z,3.13
2023-04-19T15:50:14.932Z,3.10
2023-04-19T15:52:19.214Z,4.82
2023-04-19T15:54:23.404Z,3.70
2023-04-19T15:56:27.114Z,3.13
2023-04-19T15:58:32.401Z,2.72
2023-04-19T16:00:37.431Z,3.80
2023-04-19T16:02:41.435Z,4.57
2023-04-19T16:04:47.588Z,3.22
2023-04-19T16:06:51.425Z,3.05
2023-04-19T16:08:54.947Z,2.45
2023-04-19T16:10:58.895Z,3.47
2023-04-19T16:13:04.515Z,2.95
2023-04-19T16:15:10.853Z,2.92
2023-04-19T16:17:14.360Z,3.15
2023-04-19T16:19:18.673Z,4.68
2023-04-19T16:21:22.430Z,2.42
2023-04-19T16:23:26.044Z,5.65
2023-04-19T16:25:30.283Z,2.80
2023-04-19T16:27:34.196Z,2.63
2023-04-19T16:29:38.976Z,4.25
2023-04-19T16:31:44.474Z,3.03
2023-04-19T16:33:48.102Z,2.47
2023-04-19T16:35:51.603Z,4.00
2023-04-19T16:37:57.785Z,3.53
2023-04-19T16:40:01.566Z,4.40
2023-04-19T16:42:05.295Z,3.95
2023-04-19T16:44:09.322Z,3.03
2023-04-19T16:46:18.507Z,4.97
2023-04-19T16:48:23.614Z,3.20
2023-04-19T16:50:28.976Z,3.80
2023-04-19T16:52:33.572Z,6.22
2023-04-19T16:54:38.078Z,4.15
2023-04-19T16:56:41.699Z,3.78
2023-04-19T16:58:45.330Z,4.25
2023-04-19T17:00:48.878Z,2.63
2023-04-19T17:02:53.514Z,4.53
2023-04-19T17:04:59.086Z,4.03
2023-04-19T17:07:02.757Z,3.92
2023-04-19T17:09:14.884Z,3.22
2023-04-19T17:11:18.784Z,3.05
2023-04-19T17:13:22.649Z,3.35
2023-04-19T17:15:26.257Z,2.95
2023-04-19T17:17:30.190Z,3.08
2023-04-19T17:19:34.008Z,3.05
2023-04-19T17:21:39.160Z,3.08
2023-04-19T17:23:44.887Z,3.40
2023-04-19T17:25:48.656Z,3.05
2023-04-19T17:27:52.346Z,6.38
2023-04-19T17:29:56.343Z,4.00
2023-04-19T17:32:00.454Z,3.20
2023-04-19T17:34:10.152Z,3.17
2023-04-19T17:36:14.293Z,3.88
2023-04-19T17:38:19.366Z,2.88
2023-04-19T17:40:22.962Z,3.58
2023-04-19T17:42:26.776Z,3.53
2023-04-19T17:44:30.604Z,6.28
2023-04-19T17:46:34.457Z,6.32
2023-04-19T17:48:38.170Z,3.45
2023-04-19T17:50:42.415Z,3.05
2023-04-19T17:52:46.251Z,2.60
2023-04-19T17:54:51.844Z,3.58
2023-04-19T17:56:55.767Z,3.33
2023-04-19T17:59:00.905Z,2.50
2023-04-19T18:01:04.667Z,2.67
2023-04-19T18:03:11.254Z,2.80
2023-04-19T18:05:16.370Z,5.95
2023-04-19T18:07:20.265Z,3.42
2023-04-19T18:09:45.913Z,3.10
2023-04-19T18:11:51.411Z,3.33
2023-04-19T18:13:55.153Z,3.38
2023-04-19T18:15:59.832Z,4.32
2023-04-19T18:18:03.914Z,3.13
2023-04-19T18:20:08.913Z,3.20
2023-04-19T18:22:12.745Z,5.15
2023-04-19T18:24:16.358Z,3.17
2023-04-19T18:26:20.137Z,3.13
2023-04-19T18:28:26.617Z,3.72
2023-04-19T18:30:30.950Z,3.75
2023-04-19T18:32:35.912Z,5.35
2023-04-19T18:34:39.712Z,2.85
2023-04-19T18:36:43.550Z,6.15
2023-04-19T18:38:47.356Z,5.20
2023-04-19T18:40:51.673Z,2.85
2023-04-19T18:42:57.790Z,4.30
2023-04-19T18:45:14.132Z,3.45
2023-04-19T18:47:17.924Z,4.15
2023-04-19T18:49:21.733Z,3.45
2023-04-19T18:51:26.914Z,2.70
2023-04-19T18:53:31.050Z,3.75
2023-04-19T18:56:11.079Z,3.97
2023-04-19T18:58:15.132Z,3.58
2023-04-19T19:00:21.844Z,3.40
2023-04-19T19:02:27.415Z,2.33
2023-04-19T19:04:51.095Z,3.63
2023-04-19T19:06:56.858Z,4.53
2023-04-19T19:09:03.748Z,2.50
2023-04-19T19:11:37.306Z,5.05
2023-04-19T19:13:37.719Z,2.60
2023-04-19T19:15:43.952Z,3.35
2023-04-19T19:17:49.607Z,5.25
2023-04-19T19:19:53.736Z,4.68
2023-04-19T19:21:59.811Z,3.25
2023-04-19T19:24:05.163Z,4.05
2023-04-19T19:26:08.692Z,4.82
2023-04-19T19:28:12.567Z,4.05
2023-04-19T19:30:16.686Z,4.80
2023-04-19T19:32:22.243Z,3.30
2023-04-19T19:34:30.220Z,4.15
2023-04-19T19:36:34.640Z,5.97
2023-04-19T19:38:38.225Z,3.10
2023-04-19T19:41:22.204Z,6.20
2023-04-19T19:43:05.271Z,3.95
2023-04-19T19:45:09.836Z,5.13
2023-04-19T19:47:16.996Z,4.18
2023-04-19T19:49:22.470Z,4.70
2023-04-19T19:51:53.411Z,4.80
2023-04-19T19:53:52.306Z,5.22
2023-04-19T19:55:56.760Z,4.20
2023-04-19T19:58:34.990Z,3.47
2023-04-19T20:02:34.115Z,5.35
2023-04-19T20:04:40.010Z,3.50
2023-04-19T20:08:50.563Z,4.77
2023-04-19T20:10:54.307Z,6.38
2023-04-19T20:12:58.833Z,7.03
2023-04-19T20:15:02.517Z,4.73
2023-04-19T20:17:13.943Z,3.95
2023-04-19T20:19:18.667Z,4.45
2023-04-19T20:21:23.849Z,3.40
2023-04-19T20:23:27.571Z,3.10
2023-04-19T20:25:32.803Z,4.00
2023-04-19T20:27:36.513Z,4.73
2023-04-19T20:29:40.231Z,3.83
2023-04-19T20:31:44.203Z,3.40
2023-04-19T20:33:54.421Z,4.60
2023-04-19T20:36:00.790Z,4.23
2023-04-19T20:38:07.988Z,3.67
2023-04-19T20:40:13.025Z,3.63
2023-04-19T20:45:43.179Z,4.28
2023-04-19T20:47:47.340Z,3.72
2023-04-19T20:49:51.921Z,5.70
2023-04-19T20:51:56.790Z,6.57
2023-04-19T20:54:01.887Z,5.00
2023-04-19T20:56:06.029Z,4.37
2023-04-19T20:58:09.750Z,5.70
2023-04-19T21:00:17.012Z,4.20
2023-04-19T21:02:22.106Z,3.60
2023-04-19T21:04:26.189Z,4.35
2023-04-19T21:06:29.961Z,4.00
2023-04-19T21:08:52.335Z,3.47
2023-04-19T21:10:57.543Z,5.23
2023-04-19T21:13:01.491Z,7.33
2023-04-19T21:15:05.949Z,3.93
2023-04-19T21:17:09.820Z,3.15
2023-04-19T21:19:31.379Z,4.38
2023-04-19T21:21:34.999Z,4.57
2023-04-19T21:23:39.409Z,3.40
2023-04-19T21:25:43.062Z,4.10
2023-04-19T21:27:48.046Z,4.07
2023-04-19T21:29:51.666Z,5.65
2023-04-19T21:31:55.377Z,4.40
2023-04-19T21:37:25.008Z,5.63
2023-04-19T21:39:28.606Z,4.63
2023-04-19T21:41:32.435Z,4.00
2023-04-19T21:43:37.707Z,4.23
2023-04-19T21:45:57.446Z,4.77
2023-04-19T21:48:01.309Z,4.63
2023-04-19T21:50:05.424Z,4.93
2023-04-19T21:53:07.371Z,3.93
2023-04-19T21:55:11.417Z,3.17
2023-04-19T21:57:15.154Z,2.93
2023-04-19T21:59:20.245Z,4.93
2023-04-19T22:01:24.014Z,3.30
2023-04-19T22:03:28.348Z,3.67
2023-04-19T22:05:32.124Z,6.00
2023-04-19T22:07:37.507Z,4.63
2023-04-19T22:09:41.668Z,4.80
2023-04-19T22:11:56.732Z,4.43
2023-04-19T22:14:00.479Z,5.07
2023-04-19T22:16:05.868Z,5.83
2023-04-19T22:18:09.757Z,4.40
2023-04-19T22:21:05.135Z,4.27
2023-04-19T22:23:09.279Z,3.70
2023-04-19T22:25:13.046Z,3.63
2023-04-19T22:27:16.772Z,3.73
2023-04-19T22:29:20.748Z,4.40
2023-04-19T22:31:26.293Z,4.10
2023-04-19T22:33:29.951Z,4.63
2023-04-19T22:35:33.746Z,4.27
2023-04-19T22:37:37.593Z,3.70
2023-04-19T22:39:48.846Z,4.20
2023-04-19T22:41:52.438Z,5.83
2023-04-19T22:43:56.435Z,5.87
2023-04-19T22:46:00.227Z,5.47
2023-04-19T22:48:07.151Z,4.00
2023-04-19T22:50:43.556Z,5.77
2023-04-19T22:52:47.422Z,8.40
2023-04-19T22:54:51.127Z,5.03
2023-04-19T22:56:54.699Z,4.97
2023-04-19T22:58:58.657Z,4.57
2023-04-19T23:01:02.323Z,7.33
2023-04-19T23:03:07.526Z,6.80
2023-04-19T23:05:11.554Z,6.40
2023-04-19T23:08:05.040Z,4.23
2023-04-19T23:10:10.585Z,7.60
2023-04-19T23:12:15.733Z,4.27
2023-04-19T23:14:19.492Z,6.00
2023-04-19T23:16:24.520Z,4.50
2023-04-19T23:18:30.194Z,5.97
2023-04-19T23:20:49.319Z,5.20
2023-04-19T23:22:52.879Z,7.87
2023-04-19T23:24:56.441Z,4.97
2023-04-19T23:27:00.268Z,7.87
2023-04-19T23:29:03.899Z,4.33
2023-04-19T23:31:07.500Z,4.67
2023-04-19T23:33:11.259Z,6.80
2023-04-19T23:36:12.413Z,6.10
2023-04-19T23:38:17.998Z,4.37
2023-04-19T23:40:22.392Z,7.37
2023-04-19T23:42:26.224Z,5.17
2023-04-19T23:45:10.732Z,5.73
2023-04-19T23:47:14.627Z,5.50
2023-04-19T23:49:18.522Z,6.80
2023-04-19T23:51:22.367Z,5.73
2023-04-19T23:53:27.813Z,5.90
2023-04-19T23:55:31.591Z,10.47
2023-04-19T23:57:35.985Z,4.57
2023-04-19T23:59:39.635Z,6.43
